Time;durP1;ratioP1;P1;durP2;ratioP2;P2;SDS_P1;SDS_P2;PMS_P1;PMS_P2;Temp;Humidity;BMP_temperature;BMP_pressure;BME280_temperature;BME280_humidity;BME280_pressure;Samples;Min_cycle;Max_cycle;Signal;HPM_P1;HPM_P2
2023/05/18 00:01:22;;;;;;;3.83;1.70;;;10.60;99.90;;;;;;4952968;28;20284;-75
2023/05/18 00:03:47;;;;;;;3.50;1.80;;;10.60;99.90;;;;;;4952391;28;20280;-77
2023/05/18 00:06:16;;;;;;;4.90;1.87;;;10.60;99.90;;;;;;4949480;29;20855;-73
2023/05/18 00:08:44;;;;;;;3.30;1.70;;;10.50;99.90;;;;;;4957133;28;20236;-77
2023/05/18 00:11:10;;;;;;;3.13;1.63;;;10.50;99.90;;;;;;4956068;28;20260;-76
2023/05/18 00:13:35;;;;;;;5.27;2.13;;;10.50;99.90;;;;;;4946399;29;20188;-77
2023/05/18 00:16:01;;;;;;;3.67;1.60;;;10.40;99.90;;;;;;4951504;28;20243;-76
2023/05/18 00:18:29;;;;;;;3.50;1.70;;;10.40;99.90;;;;;;4947603;29;20256;-75
2023/05/18 00:20:58;;;;;;;5.03;1.80;;;10.40;99.90;;;;;;4955656;28;20220;-76
2023/05/18 00:23:32;;;;;;;3.27;1.60;;;10.40;99.90;;;;;;4967109;28;20177;-74
2023/05/18 00:25:59;;;;;;;4.80;1.70;;;10.40;99.90;;;;;;4951800;29;20247;-73
2023/05/18 00:28:25;;;;;;;3.67;1.70;;;10.40;99.90;;;;;;4967765;28;20211;-75
2023/05/18 00:30:51;;;;;;;4.53;2.10;;;10.30;99.90;;;;;;4952938;29;20264;-75
2023/05/18 00:33:19;;;;;;;3.63;1.60;;;10.30;99.90;;;;;;4970273;28;20181;-73
2023/05/18 00:35:45;;;;;;;3.43;1.47;;;10.30;99.90;;;;;;4955463;29;20256;-74
2023/05/18 00:38:16;;;;;;;5.23;1.73;;;10.30;99.90;;;;;;4948087;28;20280;-74
2023/05/18 00:40:42;;;;;;;3.70;1.83;;;10.20;99.90;;;;;;4948255;28;20216;-73
2023/05/18 00:43:11;;;;;;;3.67;1.60;;;10.20;99.90;;;;;;4955766;29;20493;-68
2023/05/18 00:45:37;;;;;;;3.80;1.70;;;10.20;99.90;;;;;;4970599;28;20191;-76
2023/05/18 00:48:03;;;;;;;5.33;1.63;;;10.20;99.90;;;;;;4963218;28;20208;-74
2023/05/18 00:50:31;;;;;;;3.73;1.67;;;10.10;99.90;;;;;;4968931;28;20177;-75
2023/05/18 00:52:59;;;;;;;6.40;1.70;;;10.10;99.90;;;;;;4970831;28;20279;-73
2023/05/18 00:55:27;;;;;;;2.50;1.63;;;10.00;99.90;;;;;;4971524;28;20173;-75
2023/05/18 00:57:55;;;;;;;5.33;1.87;;;10.10;99.90;;;;;;4958561;29;20213;-75
2023/05/18 01:00:21;;;;;;;4.87;2.00;;;10.00;99.90;;;;;;4969977;28;20233;-75
2023/05/18 01:02:50;;;;;;;3.63;1.90;;;10.00;99.90;;;;;;4974774;28;20231;-74
2023/05/18 01:05:16;;;;;;;3.23;1.37;;;10.00;99.90;;;;;;4961319;28;20181;-72
2023/05/18 01:07:43;;;;;;;5.30;1.87;;;9.90;99.90;;;;;;4970521;28;20204;-74
2023/05/18 01:10:13;;;;;;;3.40;1.77;;;9.90;99.90;;;;;;4969768;28;20261;-74
2023/05/18 01:12:44;;;;;;;2.80;1.60;;;9.90;99.90;;;;;;4969239;28;20288;-76
2023/05/18 01:15:18;;;;;;;3.47;1.67;;;9.90;99.90;;;;;;5013912;23;20641;-75
2023/05/18 01:17:59;;;;;;;3.00;1.67;;;9.90;99.90;;;;;;4937262;29;20181;-73
2023/05/18 01:20:45;;;;;;;4.20;2.07;;;9.80;99.90;;;;;;4935707;29;20209;-73
2023/05/18 01:23:43;;;;;;;4.70;1.77;;;9.80;99.90;;;;;;4950551;28;20185;-75
2023/05/18 01:26:14;;;;;;;5.40;1.63;;;9.70;99.90;;;;;;4945849;29;20389;-75
2023/05/18 01:28:42;;;;;;;2.87;1.47;;;9.60;99.90;;;;;;4951106;29;20196;-76
2023/05/18 01:31:09;;;;;;;7.83;1.90;;;9.60;99.90;;;;;;4946517;29;20221;-76
2023/05/18 01:33:37;;;;;;;5.93;1.80;;;9.50;99.90;;;;;;4947785;29;20214;-73
2023/05/18 01:36:06;;;;;;;4.00;1.97;;;9.50;99.90;;;;;;4938130;29;20265;-68
2023/05/18 01:38:32;;;;;;;4.70;1.80;;;9.50;99.90;;;;;;4938448;29;20197;-74
2023/05/18 01:41:12;;;;;;;4.03;1.93;;;9.40;99.90;;;;;;4938914;29;20197;-76
2023/05/18 01:43:50;;;;;;;4.23;1.90;;;9.40;99.90;;;;;;4942980;29;20201;-76
2023/05/18 01:46:51;;;;;;;4.63;2.27;;;9.40;99.90;;;;;;4938233;29;20205;-76
2023/05/18 01:49:32;;;;;;;3.20;1.90;;;9.40;99.90;;;;;;4954011;28;20189;-71
2023/05/18 01:52:10;;;;;;;3.03;1.60;;;9.40;99.90;;;;;;4937730;29;20264;-76
2023/05/18 01:54:40;;;;;;;3.47;1.73;;;9.30;99.90;;;;;;4937151;29;20184;-76
2023/05/18 01:57:07;;;;;;;3.50;2.00;;;9.30;99.90;;;;;;4953871;28;20213;-75
2023/05/18 01:59:35;;;;;;;5.03;1.83;;;9.20;99.90;;;;;;4949763;28;20341;-75
2023/05/18 02:02:02;;;;;;;2.90;1.70;;;9.20;99.90;;;;;;4949096;28;20240;-77
2023/05/18 02:04:28;;;;;;;2.10;1.60;;;9.20;99.90;;;;;;4935251;29;20190;-76
2023/05/18 02:06:57;;;;;;;3.40;1.80;;;9.20;99.90;;;;;;4940457;29;20204;-72
2023/05/18 02:09:22;;;;;;;6.37;2.03;;;9.10;99.90;;;;;;4948644;28;20205;-75
2023/05/18 02:11:50;;;;;;;4.37;1.87;;;9.10;99.90;;;;;;4936694;29;20207;-74
2023/05/18 02:14:18;;;;;;;4.33;1.63;;;9.20;99.90;;;;;;4949886;28;20192;-76
2023/05/18 02:16:45;;;;;;;3.23;1.77;;;9.00;99.90;;;;;;4935465;29;20221;-77
2023/05/18 02:19:13;;;;;;;4.00;1.67;;;9.00;99.90;;;;;;4938044;29;20216;-71
2023/05/18 02:21:43;;;;;;;4.27;1.50;;;9.00;99.90;;;;;;4938717;29;20193;-76
2023/05/18 02:24:12;;;;;;;2.70;1.50;;;9.10;99.90;;;;;;4928701;29;20274;-76
2023/05/18 02:26:41;;;;;;;2.67;1.40;;;8.90;99.90;;;;;;4932404;29;20206;-75
2023/05/18 02:29:08;;;;;;;4.43;1.87;;;8.80;99.90;;;;;;4937810;29;20220;-75
2023/05/18 02:31:36;;;;;;;3.97;1.90;;;8.90;99.90;;;;;;4940064;29;20182;-76
2023/05/18 02:34:02;;;;;;;3.13;1.50;;;8.90;99.90;;;;;;4941451;29;20177;-75
2023/05/18 02:36:38;;;;;;;4.03;1.63;;;8.80;99.90;;;;;;4938246;29;20276;-76
2023/05/18 02:39:08;;;;;;;2.67;1.60;;;8.80;99.90;;;;;;4938850;29;20211;-76
2023/05/18 02:41:36;;;;;;;3.40;1.70;;;8.80;99.90;;;;;;4936790;29;20220;-76
2023/05/18 02:44:04;;;;;;;5.20;1.83;;;8.70;99.90;;;;;;4937645;29;20256;-76
2023/05/18 02:46:32;;;;;;;3.37;1.70;;;8.70;99.90;;;;;;4938663;29;20193;-76
2023/05/18 02:49:01;;;;;;;2.63;1.70;;;8.70;99.90;;;;;;4944062;29;20203;-76
2023/05/18 02:51:26;;;;;;;3.57;1.70;;;8.70;99.90;;;;;;4938212;29;20182;-74
2023/05/18 02:53:54;;;;;;;1.83;1.50;;;8.60;99.90;;;;;;4938902;29;20219;-74
2023/05/18 02:56:23;;;;;;;2.77;1.80;;;8.50;99.90;;;;;;4942046;29;20212;-74
2023/05/18 02:58:49;;;;;;;5.10;1.90;;;8.60;99.90;;;;;;4926538;29;20185;-76
2023/05/18 03:01:17;;;;;;;3.07;1.90;;;8.60;99.90;;;;;;4934285;29;20213;-75
2023/05/18 03:03:42;;;;;;;2.90;1.57;;;8.50;99.90;;;;;;4949599;28;20465;-75
2023/05/18 03:06:08;;;;;;;3.90;1.70;;;8.50;99.90;;;;;;4938385;29;20213;-74
2023/05/18 03:08:41;;;;;;;4.13;1.83;;;8.40;99.90;;;;;;4939760;29;20181;-76
2023/05/18 03:11:12;;;;;;;3.33;1.60;;;8.50;99.90;;;;;;4947174;29;20193;-76
2023/05/18 03:13:40;;;;;;;2.40;1.40;;;8.40;99.90;;;;;;4953859;28;20267;-76
2023/05/18 03:16:08;;;;;;;3.37;1.70;;;8.40;99.90;;;;;;4938287;29;20193;-74
2023/05/18 03:18:33;;;;;;;3.10;1.63;;;8.30;99.90;;;;;;4950725;28;20181;-76
2023/05/18 03:21:03;;;;;;;4.90;1.80;;;8.30;99.90;;;;;;4932646;29;20181;-77
2023/05/18 03:23:30;;;;;;;3.07;1.50;;;8.30;99.90;;;;;;4938103;29;20209;-76
2023/05/18 03:26:01;;;;;;;3.70;1.70;;;8.20;99.90;;;;;;4927736;29;20205;-75
2023/05/18 03:28:31;;;;;;;1.60;1.40;;;8.20;99.90;;;;;;4950534;28;20181;-76
2023/05/18 03:30:57;;;;;;;4.43;1.83;;;8.30;99.90;;;;;;4946846;29;20185;-72
2023/05/18 03:33:23;;;;;;;3.37;1.50;;;8.20;99.90;;;;;;4937604;29;20270;-74
2023/05/18 03:35:48;;;;;;;3.17;1.50;;;8.20;99.90;;;;;;4941679;29;20260;-76
2023/05/18 03:38:14;;;;;;;3.30;1.60;;;8.20;99.90;;;;;;4940921;29;20291;-76
2023/05/18 03:40:40;;;;;;;3.80;1.80;;;8.20;99.90;;;;;;4934284;29;20188;-75
2023/05/18 03:43:06;;;;;;;3.70;1.60;;;8.20;99.90;;;;;;4942264;29;20280;-76
2023/05/18 03:45:36;;;;;;;3.20;1.60;;;8.20;99.90;;;;;;4934192;29;20185;-73
2023/05/18 03:48:09;;;;;;;3.80;1.60;;;8.20;99.90;;;;;;4944299;29;20200;-73
2023/05/18 03:50:35;;;;;;;3.17;1.70;;;8.20;99.90;;;;;;4936548;29;20193;-77
2023/05/18 03:53:01;;;;;;;3.37;1.80;;;8.10;99.90;;;;;;4933623;29;20253;-72
2023/05/18 03:55:29;;;;;;;4.37;2.13;;;8.10;99.90;;;;;;4939756;29;20296;-76
2023/05/18 03:57:57;;;;;;;4.70;2.00;;;8.10;99.90;;;;;;4937154;29;20182;-76
2023/05/18 04:00:23;;;;;;;4.23;1.90;;;8.10;99.90;;;;;;4938070;29;20271;-75
2023/05/18 04:02:52;;;;;;;3.37;2.00;;;8.00;99.90;;;;;;4928661;29;20292;-75
2023/05/18 04:05:20;;;;;;;4.27;2.20;;;8.00;99.90;;;;;;4942635;29;20249;-77
2023/05/18 04:07:45;;;;;;;5.23;2.53;;;8.00;99.90;;;;;;4934709;29;20219;-73
2023/05/18 04:10:13;;;;;;;3.77;2.10;;;8.00;99.90;;;;;;4935254;29;20386;-78
2023/05/18 04:12:39;;;;;;;4.53;2.03;;;7.90;99.90;;;;;;4944971;28;20288;-77
2023/05/18 04:15:05;;;;;;;3.43;2.10;;;7.90;99.90;;;;;;4944226;28;20174;-74
2023/05/18 04:17:32;;;;;;;3.83;1.70;;;7.90;99.90;;;;;;4948895;28;20440;-75
2023/05/18 04:20:04;;;;;;;3.13;2.00;;;7.80;99.90;;;;;;4938483;29;20236;-76
2023/05/18 04:22:31;;;;;;;2.93;1.73;;;7.80;99.90;;;;;;4950175;29;20207;-77
2023/05/18 04:25:00;;;;;;;6.03;2.10;;;7.80;99.90;;;;;;4943784;29;20216;-73
2023/05/18 04:27:26;;;;;;;3.77;2.00;;;7.80;99.90;;;;;;4929829;29;20206;-77
2023/05/18 04:29:51;;;;;;;5.50;2.20;;;7.80;99.90;;;;;;4952263;28;20208;-76
2023/05/18 04:32:17;;;;;;;3.80;1.90;;;7.80;99.90;;;;;;4956560;28;20177;-76
2023/05/18 04:34:48;;;;;;;5.97;2.30;;;7.80;99.90;;;;;;4940562;29;20205;-76
2023/05/18 04:37:16;;;;;;;3.33;2.07;;;7.80;99.90;;;;;;4940747;29;20182;-74
2023/05/18 04:39:42;;;;;;;4.47;2.30;;;7.90;99.90;;;;;;4939746;29;20184;-75
2023/05/18 04:42:12;;;;;;;4.23;1.80;;;7.90;99.90;;;;;;4938888;29;20221;-73
2023/05/18 04:44:38;;;;;;;3.77;2.03;;;7.90;99.90;;;;;;4941184;29;20204;-72
2023/05/18 04:47:07;;;;;;;4.77;1.90;;;7.90;99.90;;;;;;4939615;29;20203;-74
2023/05/18 04:49:32;;;;;;;5.03;2.00;;;8.00;99.90;;;;;;4937296;29;20233;-73
2023/05/18 04:51:58;;;;;;;3.57;1.97;;;8.00;99.90;;;;;;4955220;28;20169;-75
2023/05/18 04:54:31;;;;;;;3.73;2.23;;;8.00;99.90;;;;;;4940566;29;20292;-74
2023/05/18 04:57:00;;;;;;;4.57;2.20;;;8.10;99.90;;;;;;4938314;29;20222;-75
2023/05/18 04:59:27;;;;;;;3.10;1.87;;;8.10;99.90;;;;;;4955542;28;20220;-75
2023/05/18 05:01:54;;;;;;;3.77;1.80;;;8.20;99.90;;;;;;4939516;29;20182;-73
2023/05/18 05:04:22;;;;;;;4.70;1.80;;;8.20;99.90;;;;;;4939311;29;20327;-75
2023/05/18 05:06:48;;;;;;;3.93;1.87;;;8.20;99.90;;;;;;4950122;28;20194;-74
2023/05/18 05:09:14;;;;;;;3.43;1.90;;;8.30;99.90;;;;;;4940383;29;20181;-75
2023/05/18 05:11:40;;;;;;;2.97;1.80;;;8.40;99.90;;;;;;4942046;29;20314;-74
2023/05/18 05:14:06;;;;;;;5.90;1.90;;;8.40;99.90;;;;;;4946927;29;20235;-71
2023/05/18 05:16:33;;;;;;;3.20;2.00;;;8.50;99.90;;;;;;4942931;29;20219;-73
2023/05/18 05:18:59;;;;;;;4.03;2.03;;;8.50;99.90;;;;;;4943467;29;20200;-74
2023/05/18 05:21:27;;;;;;;3.50;1.77;;;8.60;99.90;;;;;;4952401;29;20185;-68
2023/05/18 05:23:57;;;;;;;3.13;1.60;;;8.60;99.90;;;;;;4950782;29;20181;-73
2023/05/18 05:26:23;;;;;;;5.40;1.93;;;8.60;99.90;;;;;;4935312;29;20202;-75
2023/05/18 05:28:48;;;;;;;4.90;1.73;;;8.80;99.90;;;;;;4948008;29;20196;-70
2023/05/18 05:31:14;;;;;;;3.00;1.60;;;8.80;99.90;;;;;;4951637;29;20177;-75
2023/05/18 05:33:40;;;;;;;4.57;1.60;;;8.90;99.90;;;;;;4945825;29;20240;-76
2023/05/18 05:36:07;;;;;;;3.53;1.83;;;8.90;99.90;;;;;;4949233;29;20351;-75
2023/05/18 05:38:33;;;;;;;2.53;1.50;;;8.90;99.90;;;;;;4947381;29;20188;-75
2023/05/18 05:40:58;;;;;;;2.10;1.40;;;9.00;99.90;;;;;;4940453;28;20198;-73
2023/05/18 05:43:24;;;;;;;3.63;1.50;;;9.00;99.90;;;;;;4935829;29;20177;-73
2023/05/18 05:45:52;;;;;;;3.53;1.73;;;9.10;99.90;;;;;;4938874;29;20240;-74
2023/05/18 05:48:18;;;;;;;4.20;1.57;;;9.20;99.90;;;;;;4955932;28;20212;-71
2023/05/18 05:50:43;;;;;;;3.70;1.73;;;9.20;99.90;;;;;;4936941;29;20181;-73
2023/05/18 05:53:09;;;;;;;3.83;1.70;;;9.20;99.90;;;;;;4939641;29;20182;-75
2023/05/18 05:55:40;;;;;;;2.43;1.40;;;9.30;99.90;;;;;;4938232;29;20181;-75
2023/05/18 05:58:09;;;;;;;4.90;2.10;;;9.40;99.90;;;;;;4945927;29;20205;-74
2023/05/18 06:00:37;;;;;;;4.53;1.83;;;9.40;99.90;;;;;;4951076;28;20189;-75
2023/05/18 06:03:07;;;;;;;3.90;1.90;;;9.50;99.90;;;;;;4936971;29;20334;-70
2023/05/18 06:05:33;;;;;;;3.70;2.00;;;9.60;99.90;;;;;;4952687;29;20204;-71
2023/05/18 06:08:01;;;;;;;4.40;1.67;;;9.60;99.90;;;;;;4955524;28;20221;-75
2023/05/18 06:10:27;;;;;;;2.90;1.53;;;9.60;99.90;;;;;;4932410;29;20226;-75
2023/05/18 06:12:54;;;;;;;4.63;1.67;;;9.70;99.90;;;;;;4938203;29;20333;-71
2023/05/18 06:15:20;;;;;;;2.30;1.57;;;9.70;99.90;;;;;;4932929;29;20187;-75
2023/05/18 06:17:48;;;;;;;4.67;1.90;;;9.80;99.90;;;;;;4936679;29;20216;-74
2023/05/18 06:20:16;;;;;;;4.73;1.90;;;9.80;99.90;;;;;;4935665;29;20205;-67
2023/05/18 06:22:46;;;;;;;2.97;2.00;;;9.90;99.90;;;;;;4949980;28;20363;-76
2023/05/18 06:25:14;;;;;;;3.50;1.83;;;9.90;99.90;;;;;;4930092;29;20196;-74
2023/05/18 06:27:41;;;;;;;2.50;1.70;;;10.00;99.90;;;;;;4938614;29;20292;-75
2023/05/18 06:30:09;;;;;;;4.40;1.80;;;10.00;99.90;;;;;;4939036;29;20197;-73
2023/05/18 06:32:38;;;;;;;4.27;1.87;;;10.00;99.90;;;;;;4939588;29;20216;-76
2023/05/18 06:35:05;;;;;;;2.90;1.70;;;10.00;99.90;;;;;;4936637;29;20224;-73
2023/05/18 06:37:32;;;;;;;3.13;1.40;;;10.10;99.90;;;;;;4956065;28;20200;-76
2023/05/18 06:39:58;;;;;;;3.10;1.77;;;10.10;99.90;;;;;;4935740;29;20189;-75
2023/05/18 06:42:24;;;;;;;2.13;1.50;;;10.10;99.90;;;;;;4937836;29;20210;-75
2023/05/18 06:44:50;;;;;;;3.27;1.60;;;10.20;99.90;;;;;;4937576;29;20212;-71
2023/05/18 06:47:16;;;;;;;2.73;1.50;;;10.20;99.90;;;;;;4940733;29;20197;-71
2023/05/18 06:49:41;;;;;;;3.80;1.80;;;10.30;99.90;;;;;;4929355;29;20181;-71
2023/05/18 06:52:10;;;;;;;3.97;1.80;;;10.30;99.90;;;;;;4937889;29;20260;-76
2023/05/18 06:54:36;;;;;;;3.07;1.60;;;10.40;99.90;;;;;;4938947;29;20229;-75
2023/05/18 06:57:01;;;;;;;4.65;2.05;;;10.50;99.90;;;;;;4949585;28;20202;-75
2023/05/18 06:59:27;;;;;;;6.70;2.43;;;10.50;99.90;;;;;;4938759;29;20184;-74
2023/05/18 07:01:55;;;;;;;3.83;1.80;;;10.50;99.90;;;;;;4930572;29;20185;-74
2023/05/18 07:04:21;;;;;;;2.95;2.00;;;10.60;99.90;;;;;;4936480;29;20193;-75
2023/05/18 07:06:54;;;;;;;4.90;2.55;;;10.60;99.90;;;;;;4937010;29;20228;-76
2023/05/18 07:09:23;;;;;;;4.78;3.33;;;10.70;99.90;;;;;;4938253;29;20256;-75
2023/05/18 07:11:48;;;;;;;4.28;2.53;;;10.70;99.90;;;;;;4952632;29;20276;-76
2023/05/18 07:14:16;;;;;;;5.07;2.33;;;10.80;99.90;;;;;;4946709;29;20233;-73
2023/05/18 07:16:46;;;;;;;4.20;1.95;;;10.90;99.90;;;;;;4945184;29;20287;-75
2023/05/18 07:19:13;;;;;;;5.28;1.90;;;10.90;99.90;;;;;;4935382;29;20442;-76
2023/05/18 07:21:39;;;;;;;6.00;3.23;;;10.90;99.90;;;;;;4931325;29;20253;-74
2023/05/18 07:24:05;;;;;;;6.90;2.43;;;10.90;99.90;;;;;;4931358;29;20300;-71
2023/05/18 07:26:31;;;;;;;4.18;2.17;;;10.90;99.90;;;;;;4930168;29;20209;-74
2023/05/18 07:28:57;;;;;;;3.70;2.20;;;11.10;99.90;;;;;;4936839;29;20184;-72
2023/05/18 07:31:22;;;;;;;2.75;1.70;;;11.10;99.90;;;;;;4935308;29;20213;-73
2023/05/18 07:33:50;;;;;;;3.85;2.00;;;11.10;99.90;;;;;;4933055;29;20182;-71
2023/05/18 07:36:16;;;;;;;5.55;2.00;;;11.20;99.90;;;;;;4932157;29;20186;-76
2023/05/18 07:38:44;;;;;;;4.60;2.40;;;11.20;99.90;;;;;;4949054;28;20255;-72
2023/05/18 07:41:12;;;;;;;2.85;1.88;;;11.30;99.90;;;;;;4935746;29;20173;-75
2023/05/18 07:43:37;;;;;;;3.13;1.60;;;11.30;99.90;;;;;;4935771;29;20188;-75
2023/05/18 07:46:03;;;;;;;3.60;1.60;;;11.40;99.90;;;;;;4938684;29;20197;-76
2023/05/18 07:48:31;;;;;;;3.17;1.75;;;11.50;99.90;;;;;;4936608;29;20311;-75
2023/05/18 07:51:01;;;;;;;3.95;2.00;;;11.60;99.90;;;;;;4932220;29;20201;-75
2023/05/18 07:53:27;;;;;;;5.32;2.10;;;11.60;99.90;;;;;;4936904;29;20248;-76
2023/05/18 07:55:53;;;;;;;4.43;2.00;;;11.70;99.90;;;;;;4940387;29;20177;-77
2023/05/18 07:58:18;;;;;;;3.55;2.15;;;11.70;99.90;;;;;;4945537;29;20288;-71
2023/05/18 08:00:44;;;;;;;3.35;2.13;;;11.80;99.90;;;;;;4936608;29;20189;-76
2023/05/18 08:03:12;;;;;;;6.13;2.20;;;11.90;99.90;;;;;;4939401;29;20200;-75
2023/05/18 08:05:38;;;;;;;6.20;1.88;;;11.90;99.90;;;;;;4939193;28;20196;-74
2023/05/18 08:08:07;;;;;;;4.68;1.75;;;12.00;99.90;;;;;;4937187;29;20280;-74
2023/05/18 08:10:32;;;;;;;5.57;1.65;;;12.00;99.90;;;;;;4927174;29;20206;-75
2023/05/18 08:13:03;;;;;;;2.88;1.80;;;12.10;99.90;;;;;;4934259;29;20273;-73
2023/05/18 08:15:31;;;;;;;4.07;1.50;;;12.20;99.90;;;;;;4920155;29;20195;-75
2023/05/18 08:17:57;;;;;;;2.30;1.55;;;12.30;99.90;;;;;;4943929;29;20206;-75
2023/05/18 08:20:24;;;;;;;2.88;1.42;;;12.40;99.90;;;;;;4952235;29;20280;-68
2023/05/18 08:22:55;;;;;;;3.78;1.58;;;12.40;99.90;;;;;;4926135;29;20277;-74
2023/05/18 08:25:20;;;;;;;5.47;2.03;;;12.50;99.90;;;;;;4936354;29;20209;-75
2023/05/18 08:27:48;;;;;;;4.30;1.88;;;12.60;99.90;;;;;;4954012;28;20256;-75
2023/05/18 08:30:20;;;;;;;5.82;3.70;;;12.60;99.90;;;;;;4952200;29;20177;-75
2023/05/18 08:32:48;;;;;;;6.63;3.60;;;12.70;99.90;;;;;;4936346;29;20188;-73
2023/05/18 08:35:14;;;;;;;8.50;2.80;;;12.80;99.90;;;;;;4948598;29;20178;-76
2023/05/18 08:37:40;;;;;;;4.13;2.05;;;12.90;99.90;;;;;;4938946;29;20196;-76
2023/05/18 08:40:06;;;;;;;3.63;2.00;;;12.90;99.90;;;;;;4936459;29;20177;-76
2023/05/18 08:42:34;;;;;;;2.85;1.60;;;13.00;99.90;;;;;;4935590;29;20236;-74
2023/05/18 08:45:22;;;;;;;8.60;2.30;;;13.10;99.90;;;;;;4946350;29;20208;-74
2023/05/18 08:47:50;;;;;;;4.97;1.80;;;13.20;99.90;;;;;;4953299;28;20235;-73
2023/05/18 08:50:19;;;;;;;3.25;1.88;;;13.30;99.90;;;;;;4936697;29;20177;-76
2023/05/18 08:52:56;;;;;;;5.88;1.90;;;13.40;99.90;;;;;;4936851;29;20205;-76
2023/05/18 08:55:25;;;;;;;2.65;1.55;;;13.50;99.90;;;;;;4935762;29;20169;-72
2023/05/18 08:57:56;;;;;;;5.22;1.98;;;13.50;99.90;;;;;;4936923;29;20209;-70
2023/05/18 09:00:25;;;;;;;2.80;1.58;;;13.60;99.90;;;;;;4936158;29;20196;-78
2023/05/18 09:02:52;;;;;;;3.60;1.63;;;13.70;99.90;;;;;;4937003;29;20260;-76
2023/05/18 09:05:20;;;;;;;3.25;1.58;;;13.80;99.90;;;;;;4953295;29;20197;-75
2023/05/18 09:07:48;;;;;;;5.03;1.58;;;13.90;99.90;;;;;;4939198;29;20201;-76
2023/05/18 09:10:14;;;;;;;3.78;1.50;;;13.90;99.90;;;;;;4935735;29;20209;-78
2023/05/18 09:12:41;;;;;;;2.85;1.58;;;14.00;99.90;;;;;;4939255;29;20228;-79
2023/05/18 09:15:13;;;;;;;6.05;1.48;;;14.10;99.90;;;;;;4939456;29;20178;-78
2023/05/18 09:17:39;;;;;;;3.58;1.60;;;14.20;99.90;;;;;;4937075;29;20190;-79
2023/05/18 09:20:07;;;;;;;3.72;1.80;;;14.30;99.90;;;;;;4941113;29;20204;-78
2023/05/18 09:22:40;;;;;;;4.47;1.60;;;14.40;99.90;;;;;;4951640;29;20225;-77
2023/05/18 09:25:12;;;;;;;3.45;1.60;;;14.50;99.90;;;;;;4936575;29;20185;-76
2023/05/18 09:27:38;;;;;;;2.30;1.65;;;14.60;99.90;;;;;;4957970;28;20212;-75
2023/05/18 09:30:08;;;;;;;3.47;1.90;;;14.70;99.90;;;;;;4935250;29;20173;-75
2023/05/18 09:32:36;;;;;;;4.97;1.70;;;14.80;99.90;;;;;;4935175;29;20271;-76
2023/05/18 09:35:04;;;;;;;4.70;1.90;;;14.90;99.90;;;;;;4928518;29;20178;-75
2023/05/18 09:37:31;;;;;;;4.13;1.85;;;15.00;99.90;;;;;;4937487;29;20250;-78
2023/05/18 09:40:03;;;;;;;6.05;1.65;;;15.00;99.90;;;;;;4954248;28;20209;-73
2023/05/18 09:42:42;;;;;;;3.15;1.55;;;15.20;99.90;;;;;;4939191;29;20211;-75
2023/05/18 09:45:27;;;;;;;3.15;1.75;;;15.30;99.90;;;;;;4938106;29;20192;-70
2023/05/18 09:47:55;;;;;;;3.67;1.60;;;15.40;99.90;;;;;;4943467;29;20204;-71
2023/05/18 09:50:22;;;;;;;5.03;2.00;;;15.40;99.90;;;;;;4939848;29;20239;-71
2023/05/18 09:52:48;;;;;;;4.30;1.88;;;15.50;99.90;;;;;;4948234;29;20175;-66
2023/05/18 09:55:18;;;;;;;4.57;1.83;;;15.50;99.90;;;;;;4937344;29;20261;-67
2023/05/18 09:57:53;;;;;;;4.32;1.70;;;15.60;99.90;;;;;;4937845;29;20205;-66
2023/05/18 10:00:22;;;;;;;3.47;1.65;;;15.70;99.90;;;;;;4948335;29;20174;-66
2023/05/18 10:02:51;;;;;;;4.07;1.92;;;15.80;99.90;;;;;;4936981;29;20205;-67
2023/05/18 10:05:26;;;;;;;3.05;1.50;;;15.90;99.90;;;;;;4935143;29;20182;-71
2023/05/18 10:07:55;;;;;;;2.97;1.60;;;16.00;99.90;;;;;;4941936;29;20339;-68
2023/05/18 10:10:24;;;;;;;3.20;1.70;;;16.10;99.90;;;;;;4946962;29;20226;-70
2023/05/18 10:12:50;;;;;;;3.58;1.73;;;16.30;99.90;;;;;;4968570;28;20186;-65
2023/05/18 10:15:21;;;;;;;4.00;1.50;;;16.30;99.90;;;;;;4941963;29;20453;-62
2023/05/18 10:17:47;;;;;;;4.18;1.63;;;16.40;99.90;;;;;;4937192;29;20177;-74
2023/05/18 10:20:23;;;;;;;3.90;1.67;;;16.50;99.90;;;;;;4934097;29;20185;-70
2023/05/18 10:22:49;;;;;;;4.07;1.70;;;16.60;99.90;;;;;;4948000;29;20206;-67
2023/05/18 10:25:20;;;;;;;5.07;1.70;;;16.70;99.90;;;;;;4937061;29;20192;-69
2023/05/18 10:27:48;;;;;;;6.32;3.17;;;16.70;99.90;;;;;;4937233;29;20189;-67
2023/05/18 10:30:17;;;;;;;3.15;1.90;;;16.80;99.90;;;;;;4954498;28;20273;-67
2023/05/18 10:32:44;;;;;;;6.18;1.95;;;17.00;99.90;;;;;;4937775;29;20205;-68
2023/05/18 10:35:13;;;;;;;3.45;1.55;;;17.20;99.90;;;;;;4953177;29;20180;-68
2023/05/18 10:37:46;;;;;;;3.22;1.55;;;17.50;99.90;;;;;;4937299;29;20200;-67
2023/05/18 10:40:14;;;;;;;2.88;1.52;;;17.80;99.90;;;;;;4945796;29;20494;-67
2023/05/18 10:42:41;;;;;;;5.38;1.67;;;18.00;99.90;;;;;;4934873;29;20270;-63
2023/05/18 10:45:09;;;;;;;3.95;1.40;;;18.30;99.90;;;;;;4949360;28;20190;-70
2023/05/18 10:47:38;;;;;;;4.35;1.55;;;18.50;99.90;;;;;;4938443;29;20205;-69
2023/05/18 10:50:10;;;;;;;3.78;1.27;;;18.70;99.90;;;;;;4935523;29;20201;-69
2023/05/18 10:52:44;;;;;;;2.13;1.20;;;19.00;99.90;;;;;;4936851;29;20296;-67
2023/05/18 10:55:10;;;;;;;6.40;2.25;;;19.30;99.90;;;;;;4936512;29;20184;-67
2023/05/18 10:57:44;;;;;;;5.35;2.10;;;19.50;99.90;;;;;;4937672;29;20208;-74
2023/05/18 11:00:13;;;;;;;5.28;1.40;;;19.70;99.90;;;;;;4930575;29;20188;-70
2023/05/18 11:02:41;;;;;;;5.18;1.73;;;19.80;99.90;;;;;;4934656;29;20182;-67
2023/05/18 11:05:08;;;;;;;2.40;1.45;;;20.00;99.90;;;;;;4948851;28;20197;-72
2023/05/18 11:07:34;;;;;;;3.28;1.77;;;20.20;99.90;;;;;;4935806;29;20268;-72
2023/05/18 11:10:04;;;;;;;3.42;1.73;;;20.30;99.90;;;;;;4951781;28;20181;-67
2023/05/18 11:12:32;;;;;;;3.78;1.55;;;20.50;99.90;;;;;;4943931;29;20177;-64
2023/05/18 11:14:59;;;;;;;3.38;1.50;;;20.60;99.90;;;;;;4951169;28;20282;-74
2023/05/18 11:17:33;;;;;;;4.93;1.55;;;20.70;99.90;;;;;;4933739;29;20225;-75
2023/05/18 11:20:07;;;;;;;4.40;1.42;;;20.90;99.90;;;;;;4947718;28;20201;-75
2023/05/18 11:22:52;;;;;;;4.63;1.83;;;21.00;99.90;;;;;;4934319;29;20173;-73
2023/05/18 11:25:27;;;;;;;3.08;1.55;;;21.00;99.90;;;;;;4935479;29;20209;-75
2023/05/18 11:28:04;;;;;;;2.97;1.20;;;20.90;99.90;;;;;;4952288;28;20232;-74
2023/05/18 11:30:44;;;;;;;2.95;1.70;;;20.90;99.90;;;;;;4933392;29;20184;-72
2023/05/18 11:33:16;;;;;;;3.78;1.70;;;20.90;99.90;;;;;;4938165;29;20243;-72
2023/05/18 11:35:54;;;;;;;2.22;1.38;;;20.80;99.90;;;;;;4952406;28;20178;-75
2023/05/18 11:38:22;;;;;;;3.38;1.83;;;20.80;99.90;;;;;;4953259;29;20253;-75
2023/05/18 11:40:51;;;;;;;2.75;1.20;;;20.70;99.90;;;;;;4937140;29;20185;-73
2023/05/18 11:43:23;;;;;;;3.15;1.40;;;20.80;99.90;;;;;;4937816;29;20177;-74
2023/05/18 11:45:57;;;;;;;3.72;1.50;;;20.90;99.90;;;;;;4957063;28;20183;-75
2023/05/18 11:48:32;;;;;;;4.88;2.58;;;21.00;99.90;;;;;;4944469;28;20197;-61
2023/05/18 11:51:00;;;;;;;4.00;1.90;;;21.10;99.90;;;;;;4953740;28;20197;-57
2023/05/18 11:53:28;;;;;;;2.95;1.75;;;21.20;99.90;;;;;;4958885;28;20186;-64
2023/05/18 11:55:55;;;;;;;2.90;1.52;;;21.40;99.90;;;;;;4956473;29;20271;-60
2023/05/18 11:58:24;;;;;;;2.85;1.35;;;21.60;99.90;;;;;;4972865;28;20214;-60
2023/05/18 12:00:50;;;;;;;2.35;1.50;;;21.80;99.90;;;;;;4931818;29;20209;-78
2023/05/18 12:03:16;;;;;;;2.00;1.17;;;21.90;99.90;;;;;;4934843;29;20181;-74
2023/05/18 12:05:48;;;;;;;3.33;1.50;;;22.10;99.90;;;;;;4937875;29;20181;-73
2023/05/18 12:08:18;;;;;;;4.18;1.60;;;22.20;99.90;;;;;;4931831;29;20293;-75
2023/05/18 12:10:48;;;;;;;2.47;1.30;;;22.30;99.90;;;;;;4941707;29;20177;-76
2023/05/18 12:13:16;;;;;;;3.72;1.63;;;22.30;99.90;;;;;;4937037;29;20269;-70
2023/05/18 12:15:45;;;;;;;2.90;1.20;;;22.40;99.90;;;;;;4946356;29;20333;-64
2023/05/18 12:18:11;;;;;;;4.22;1.20;;;22.40;99.90;;;;;;4928157;29;20197;-67
2023/05/18 12:20:40;;;;;;;3.38;1.70;;;22.50;99.90;;;;;;4945079;28;20198;-68
2023/05/18 12:23:06;;;;;;;2.53;1.50;;;22.50;99.90;;;;;;4932698;29;20197;-65
2023/05/18 12:25:32;;;;;;;2.28;1.17;;;22.50;99.90;;;;;;4935528;29;20181;-68
2023/05/18 12:27:58;;;;;;;2.92;1.27;;;22.70;99.90;;;;;;4935229;29;20342;-69
2023/05/18 12:30:33;;;;;;;3.90;1.50;;;22.70;99.90;;;;;;4935787;29;20220;-66
2023/05/18 12:33:01;;;;;;;3.50;1.40;;;22.90;99.90;;;;;;4937938;29;20224;-70
2023/05/18 12:35:32;;;;;;;3.83;1.40;;;23.00;99.90;;;;;;4933160;29;20233;-69
2023/05/18 12:38:00;;;;;;;3.30;1.45;;;23.00;99.90;;;;;;4951033;28;20260;-65
2023/05/18 12:40:26;;;;;;;4.32;1.58;;;23.10;99.90;;;;;;4935043;29;20177;-68
2023/05/18 12:43:04;;;;;;;3.15;1.70;;;23.20;99.90;;;;;;4935935;29;20200;-69
2023/05/18 12:45:31;;;;;;;4.10;1.88;;;23.30;97.30;;;;;;4935389;29;20181;-69
2023/05/18 12:48:04;;;;;;;3.20;1.40;;;23.40;99.90;;;;;;4933023;29;20205;-69
2023/05/18 12:50:30;;;;;;;3.53;1.42;;;23.50;99.60;;;;;;4935943;29;20202;-69
2023/05/18 12:52:56;;;;;;;3.00;1.55;;;23.50;99.90;;;;;;4935774;29;20181;-70
2023/05/18 12:55:23;;;;;;;4.40;1.60;;;23.50;99.90;;;;;;4931533;29;20177;-68
2023/05/18 12:58:00;;;;;;;3.03;1.23;;;23.60;99.90;;;;;;4936961;29;20197;-69